AAH202 PHTO-PHLI
Flight info
| Callsign | AAH202 |
|---|---|
| Flight time | 0h 52m |
| Altitude | 36000 |
| Route | ITO V22 OKALA V16 NAPUA LIH |
| Aircraft | B736/M-SDE2E3FGHIRWXY/LB1 |
Departure
| Time | 2026-04-26 01:21 |
|---|---|
| Airport | Hilo International Airport (PHTO) |
Arrival
| Time | 2026-04-26 02:13 |
|---|---|
| Airport | Lihue Airport (PHLI) |
| Time | Latitude | Longitude | Altitude | Speed | Heading |
|---|---|---|---|---|---|
| 2026-04-26 00:55 | 19.71559 | -155.03836 | 41 ft | 0 kts | 180° |
| 2026-04-26 01:05 | 19.71570 | -155.03836 | 39 ft | 2 kts | 180° |
| 2026-04-26 01:05 | 19.71584 | -155.03836 | 38 ft | 2 kts | 181° |
| 2026-04-26 01:06 | 19.71597 | -155.03835 | 39 ft | 2 kts | 185° |
| 2026-04-26 01:06 | 19.71610 | -155.03834 | 39 ft | 2 kts | 195° |
| 2026-04-26 01:06 | 19.71618 | -155.03831 | 40 ft | 1 kts | 219° |
| 2026-04-26 01:06 | 19.71623 | -155.03825 | 40 ft | 1 kts | 248° |
| 2026-04-26 01:07 | 19.71625 | -155.03817 | 39 ft | 1 kts | 262° |
| 2026-04-26 01:07 | 19.71625 | -155.03815 | 39 ft | 0 kts | 264° |
| 2026-04-26 01:08 | 19.71627 | -155.03817 | 41 ft | 1 kts | 279° |
| 2026-04-26 01:09 | 19.71634 | -155.03840 | 41 ft | 5 kts | 290° |
| 2026-04-26 01:09 | 19.71648 | -155.03886 | 40 ft | 8 kts | 283° |
| 2026-04-26 01:09 | 19.71644 | -155.03947 | 41 ft | 9 kts | 268° |
| 2026-04-26 01:09 | 19.71645 | -155.04010 | 41 ft | 8 kts | 276° |
| 2026-04-26 01:10 | 19.71675 | -155.04057 | 40 ft | 8 kts | 340° |
| 2026-04-26 01:10 | 19.71731 | -155.04058 | 41 ft | 8 kts | 0° |
| 2026-04-26 01:10 | 19.71787 | -155.04058 | 41 ft | 9 kts | 360° |
| 2026-04-26 01:10 | 19.71854 | -155.04058 | 41 ft | 11 kts | 0° |
| 2026-04-26 01:11 | 19.71934 | -155.04058 | 39 ft | 12 kts | 0° |
| 2026-04-26 01:11 | 19.72010 | -155.04093 | 41 ft | 13 kts | 291° |
| 2026-04-26 01:11 | 19.72015 | -155.04199 | 40 ft | 16 kts | 270° |
| 2026-04-26 01:11 | 19.72015 | -155.04324 | 40 ft | 18 kts | 270° |
| 2026-04-26 01:12 | 19.72015 | -155.04465 | 39 ft | 20 kts | 270° |
| 2026-04-26 01:12 | 19.72016 | -155.04621 | 38 ft | 22 kts | 270° |
| 2026-04-26 01:12 | 19.72016 | -155.04786 | 37 ft | 22 kts | 270° |
| 2026-04-26 01:12 | 19.72016 | -155.04949 | 37 ft | 22 kts | 270° |
| 2026-04-26 01:13 | 19.72016 | -155.05106 | 37 ft | 21 kts | 270° |
| 2026-04-26 01:13 | 19.72017 | -155.05208 | 36 ft | 21 kts | 270° |
| 2026-04-26 01:13 | 19.72016 | -155.05357 | 36 ft | 20 kts | 270° |
| 2026-04-26 01:13 | 19.72016 | -155.05502 | 39 ft | 19 kts | 270° |
| 2026-04-26 01:14 | 19.72003 | -155.05669 | 37 ft | 14 kts | 235° |
| 2026-04-26 01:14 | 19.71932 | -155.05740 | 38 ft | 14 kts | 221° |
| 2026-04-26 01:14 | 19.71884 | -155.05784 | 38 ft | 13 kts | 220° |
| 2026-04-26 01:14 | 19.71816 | -155.05846 | 38 ft | 13 kts | 220° |
| 2026-04-26 01:15 | 19.71749 | -155.05906 | 39 ft | 12 kts | 220° |
| 2026-04-26 01:15 | 19.71684 | -155.05964 | 39 ft | 12 kts | 220° |
| 2026-04-26 01:15 | 19.71621 | -155.06022 | 40 ft | 12 kts | 220° |
| 2026-04-26 01:15 | 19.71559 | -155.06079 | 40 ft | 12 kts | 221° |
| 2026-04-26 01:16 | 19.71498 | -155.06135 | 40 ft | 11 kts | 220° |
| 2026-04-26 01:16 | 19.71439 | -155.06189 | 42 ft | 11 kts | 220° |
| 2026-04-26 01:16 | 19.71382 | -155.06241 | 42 ft | 11 kts | 221° |
| 2026-04-26 01:16 | 19.71361 | -155.06260 | 41 ft | 0 kts | 220° |
| 2026-04-26 01:17 | 19.71360 | -155.06260 | 41 ft | 0 kts | 220° |
| 2026-04-26 01:17 | 19.71349 | -155.06270 | 40 ft | 4 kts | 220° |
| 2026-04-26 01:17 | 19.71322 | -155.06291 | 43 ft | 0 kts | 198° |
| 2026-04-26 01:17 | 19.71318 | -155.06290 | 43 ft | 0 kts | 174° |
| 2026-04-26 01:18 | 19.71317 | -155.06290 | 43 ft | 0 kts | 165° |
| 2026-04-26 01:19 | 19.71312 | -155.06287 | 43 ft | 3 kts | 154° |
| 2026-04-26 01:20 | 19.71293 | -155.06269 | 44 ft | 5 kts | 131° |
| 2026-04-26 01:20 | 19.71277 | -155.06236 | 42 ft | 6 kts | 86° |
| 2026-04-26 01:20 | 19.71302 | -155.06203 | 42 ft | 6 kts | 40° |
| 2026-04-26 01:20 | 19.71532 | -155.05994 | 40 ft | 90 kts | 41° |
| 2026-04-26 01:21 | 19.72199 | -155.05393 | 219 ft | 149 kts | 42° |
| 2026-04-26 01:21 | 19.72995 | -155.04630 | 1120 ft | 157 kts | 46° |
| 2026-04-26 01:21 | 19.73344 | -155.03510 | 2048 ft | 176 kts | 97° |
| 2026-04-26 01:21 | 19.72907 | -155.02198 | 2787 ft | 198 kts | 100° |
| 2026-04-26 01:22 | 19.73080 | -155.00700 | 3244 ft | 223 kts | 59° |
| 2026-04-26 01:22 | 19.74282 | -154.99654 | 3964 ft | 237 kts | 20° |
| 2026-04-26 01:22 | 19.76000 | -154.99608 | 4621 ft | 261 kts | 343° |
| 2026-04-26 01:22 | 19.77487 | -155.00726 | 5660 ft | 271 kts | 308° |
| 2026-04-26 01:23 | 19.78339 | -155.02531 | 6759 ft | 275 kts | 293° |
| 2026-04-26 01:23 | 19.79123 | -155.04389 | 7798 ft | 278 kts | 297° |
| 2026-04-26 01:23 | 19.80121 | -155.06169 | 8815 ft | 282 kts | 304° |
| 2026-04-26 01:23 | 19.81320 | -155.07830 | 9853 ft | 285 kts | 310° |
| 2026-04-26 01:24 | 19.82682 | -155.09410 | 10590 ft | 299 kts | 314° |
| 2026-04-26 01:24 | 19.84245 | -155.11010 | 10911 ft | 325 kts | 317° |
| 2026-04-26 01:24 | 19.85952 | -155.12608 | 11609 ft | 334 kts | 319° |
| 2026-04-26 01:24 | 19.87749 | -155.14207 | 12466 ft | 338 kts | 321° |
| 2026-04-26 01:25 | 19.89589 | -155.15797 | 13340 ft | 342 kts | 321° |
| 2026-04-26 01:25 | 19.91461 | -155.17390 | 14095 ft | 348 kts | 322° |
| 2026-04-26 01:25 | 19.93373 | -155.19008 | 14805 ft | 352 kts | 322° |
| 2026-04-26 01:25 | 19.95292 | -155.20629 | 15608 ft | 354 kts | 322° |
| 2026-04-26 01:26 | 19.97232 | -155.22269 | 16319 ft | 359 kts | 321° |
| 2026-04-26 01:26 | 19.99204 | -155.23937 | 17054 ft | 363 kts | 321° |
| 2026-04-26 01:26 | 20.01054 | -155.25782 | 17769 ft | 368 kts | 310° |
| 2026-04-26 01:26 | 20.02518 | -155.27998 | 18470 ft | 372 kts | 299° |
| 2026-04-26 01:27 | 20.03563 | -155.30528 | 19093 ft | 377 kts | 290° |
| 2026-04-26 01:27 | 20.04381 | -155.33187 | 19735 ft | 381 kts | 288° |
| 2026-04-26 01:27 | 20.05171 | -155.35898 | 20389 ft | 385 kts | 288° |
| 2026-04-26 01:27 | 20.05978 | -155.38627 | 21036 ft | 389 kts | 289° |
| 2026-04-26 01:28 | 20.06817 | -155.41384 | 21684 ft | 394 kts | 289° |
| 2026-04-26 01:28 | 20.07676 | -155.44163 | 22336 ft | 397 kts | 289° |
| 2026-04-26 01:28 | 20.08546 | -155.46966 | 22950 ft | 402 kts | 289° |
| 2026-04-26 01:28 | 20.09428 | -155.49810 | 23572 ft | 406 kts | 289° |
| 2026-04-26 01:29 | 20.10315 | -155.52677 | 24100 ft | 410 kts | 289° |
| 2026-04-26 01:29 | 20.11209 | -155.55572 | 24649 ft | 413 kts | 289° |
| 2026-04-26 01:29 | 20.12108 | -155.58490 | 25236 ft | 415 kts | 289° |
| 2026-04-26 01:29 | 20.12997 | -155.61375 | 25807 ft | 417 kts | 289° |
| 2026-04-26 01:30 | 20.13907 | -155.64323 | 26356 ft | 420 kts | 289° |
| 2026-04-26 01:30 | 20.14820 | -155.67288 | 26883 ft | 423 kts | 289° |
| 2026-04-26 01:30 | 20.15740 | -155.70277 | 27428 ft | 425 kts | 289° |
| 2026-04-26 01:30 | 20.16660 | -155.73268 | 28137 ft | 423 kts | 289° |
| 2026-04-26 01:31 | 20.17570 | -155.76234 | 28943 ft | 419 kts | 289° |
| 2026-04-26 01:31 | 20.18475 | -155.79179 | 29721 ft | 417 kts | 289° |
| 2026-04-26 01:31 | 20.19374 | -155.82105 | 30392 ft | 415 kts | 289° |
| 2026-04-26 01:31 | 20.20354 | -155.84982 | 31086 ft | 410 kts | 295° |
| 2026-04-26 01:32 | 20.21633 | -155.87662 | 31827 ft | 404 kts | 298° |
| 2026-04-26 01:32 | 20.22952 | -155.90246 | 32489 ft | 401 kts | 298° |
| 2026-04-26 01:32 | 20.24291 | -155.92832 | 33111 ft | 398 kts | 298° |
| 2026-04-26 01:32 | 20.25621 | -155.95407 | 33660 ft | 396 kts | 297° |
| 2026-04-26 01:33 | 20.26943 | -155.97986 | 33887 ft | 398 kts | 297° |
| 2026-04-26 01:33 | 20.28260 | -156.00570 | 33973 ft | 393 kts | 297° |
| 2026-04-26 01:33 | 20.30832 | -156.05653 | 34011 ft | 389 kts | 297° |
| 2026-04-26 01:34 | 20.33404 | -156.10758 | 34025 ft | 393 kts | 297° |
| 2026-04-26 01:34 | 20.36005 | -156.15928 | 34024 ft | 398 kts | 297° |
| 2026-04-26 01:35 | 20.38623 | -156.21132 | 34028 ft | 403 kts | 297° |
| 2026-04-26 01:35 | 20.41282 | -156.26423 | 34025 ft | 405 kts | 297° |
| 2026-04-26 01:36 | 20.43938 | -156.31712 | 34021 ft | 404 kts | 297° |
| 2026-04-26 01:37 | 20.47866 | -156.39545 | 34023 ft | 398 kts | 297° |
| 2026-04-26 01:37 | 20.50480 | -156.44765 | 34034 ft | 400 kts | 297° |
| 2026-04-26 01:38 | 20.53099 | -156.49997 | 34029 ft | 402 kts | 297° |
| 2026-04-26 01:38 | 20.55734 | -156.55266 | 34024 ft | 403 kts | 297° |
| 2026-04-26 01:39 | 20.58373 | -156.60552 | 34035 ft | 403 kts | 297° |
| 2026-04-26 01:39 | 20.61009 | -156.65835 | 34031 ft | 403 kts | 297° |
| 2026-04-26 01:40 | 20.63637 | -156.71107 | 34046 ft | 402 kts | 297° |
| 2026-04-26 01:40 | 20.66256 | -156.76368 | 34057 ft | 400 kts | 297° |
| 2026-04-26 01:41 | 20.68864 | -156.81609 | 34066 ft | 399 kts | 297° |
| 2026-04-26 01:41 | 20.71468 | -156.86848 | 34082 ft | 399 kts | 297° |
| 2026-04-26 01:42 | 20.74072 | -156.92091 | 34087 ft | 399 kts | 297° |
| 2026-04-26 01:42 | 20.76611 | -156.97330 | 34075 ft | 400 kts | 292° |
| 2026-04-26 01:43 | 20.78456 | -157.02929 | 34081 ft | 400 kts | 288° |
| 2026-04-26 01:43 | 20.80231 | -157.08574 | 34070 ft | 400 kts | 289° |
| 2026-04-26 01:44 | 20.82044 | -157.14198 | 34054 ft | 400 kts | 289° |
| 2026-04-26 01:44 | 20.83859 | -157.19819 | 34052 ft | 400 kts | 289° |
| 2026-04-26 01:45 | 20.85638 | -157.25342 | 34032 ft | 400 kts | 289° |
| 2026-04-26 01:45 | 20.87443 | -157.30955 | 34021 ft | 399 kts | 289° |
| 2026-04-26 01:46 | 20.89246 | -157.36571 | 34013 ft | 398 kts | 289° |
| 2026-04-26 01:46 | 20.91040 | -157.42165 | 34017 ft | 397 kts | 289° |
| 2026-04-26 01:47 | 20.92828 | -157.47744 | 34017 ft | 396 kts | 289° |
| 2026-04-26 01:47 | 20.94610 | -157.53313 | 34014 ft | 395 kts | 289° |
| 2026-04-26 01:48 | 20.96387 | -157.58873 | 34016 ft | 395 kts | 289° |
| 2026-04-26 01:48 | 20.98170 | -157.64458 | 34024 ft | 398 kts | 290° |
| 2026-04-26 01:49 | 20.99907 | -157.69910 | 34001 ft | 374 kts | 290° |
| 2026-04-26 01:49 | 21.00732 | -157.72501 | 34003 ft | 360 kts | 290° |
| 2026-04-26 01:49 | 21.01524 | -157.74991 | 33999 ft | 348 kts | 290° |
| 2026-04-26 01:49 | 21.02290 | -157.77403 | 34006 ft | 335 kts | 290° |
| 2026-04-26 01:50 | 21.03029 | -157.79726 | 34004 ft | 323 kts | 290° |
| 2026-04-26 01:50 | 21.03742 | -157.81967 | 33835 ft | 316 kts | 290° |
| 2026-04-26 01:50 | 21.04454 | -157.84205 | 33042 ft | 323 kts | 290° |
| 2026-04-26 01:50 | 21.05196 | -157.86535 | 31710 ft | 347 kts | 291° |
| 2026-04-26 01:51 | 21.06002 | -157.89065 | 30370 ft | 370 kts | 291° |
| 2026-04-26 01:51 | 21.06849 | -157.91735 | 29387 ft | 378 kts | 291° |
| 2026-04-26 01:51 | 21.07675 | -157.94350 | 28994 ft | 367 kts | 291° |
| 2026-04-26 01:51 | 21.08491 | -157.96936 | 28375 ft | 365 kts | 291° |
| 2026-04-26 01:52 | 21.09304 | -157.99507 | 27930 ft | 364 kts | 291° |
| 2026-04-26 01:52 | 21.10115 | -158.02073 | 27525 ft | 363 kts | 291° |
| 2026-04-26 01:52 | 21.10923 | -158.04631 | 27117 ft | 361 kts | 291° |
| 2026-04-26 01:52 | 21.11717 | -158.07141 | 26738 ft | 359 kts | 291° |
| 2026-04-26 01:53 | 21.12516 | -158.09670 | 26348 ft | 358 kts | 291° |
| 2026-04-26 01:53 | 21.13313 | -158.12193 | 25977 ft | 356 kts | 290° |
| 2026-04-26 01:53 | 21.14103 | -158.14701 | 25593 ft | 355 kts | 291° |
| 2026-04-26 01:53 | 21.14891 | -158.17201 | 25218 ft | 353 kts | 291° |
| 2026-04-26 01:54 | 21.15677 | -158.19694 | 24831 ft | 353 kts | 291° |
| 2026-04-26 01:54 | 21.16460 | -158.22180 | 24460 ft | 352 kts | 291° |
| 2026-04-26 01:54 | 21.17241 | -158.24662 | 24066 ft | 351 kts | 290° |
| 2026-04-26 01:54 | 21.18022 | -158.27148 | 23679 ft | 351 kts | 290° |
| 2026-04-26 01:55 | 21.18801 | -158.29623 | 23251 ft | 350 kts | 291° |
| 2026-04-26 01:55 | 21.19754 | -158.31977 | 22784 ft | 348 kts | 301° |
| 2026-04-26 01:55 | 21.21011 | -158.34189 | 22316 ft | 347 kts | 304° |
| 2026-04-26 01:55 | 21.22317 | -158.36364 | 21911 ft | 345 kts | 305° |
| 2026-04-26 01:56 | 21.23615 | -158.38524 | 21518 ft | 344 kts | 305° |
| 2026-04-26 01:56 | 21.24899 | -158.40677 | 21135 ft | 342 kts | 304° |
| 2026-04-26 01:56 | 21.26167 | -158.42822 | 20758 ft | 340 kts | 304° |
| 2026-04-26 01:56 | 21.27424 | -158.44964 | 20389 ft | 338 kts | 304° |
| 2026-04-26 01:57 | 21.28670 | -158.47096 | 20014 ft | 337 kts | 304° |
| 2026-04-26 01:57 | 21.29912 | -158.49221 | 19648 ft | 335 kts | 304° |
| 2026-04-26 01:57 | 21.31159 | -158.51351 | 19203 ft | 337 kts | 304° |
| 2026-04-26 01:57 | 21.32401 | -158.53473 | 18812 ft | 336 kts | 304° |
| 2026-04-26 01:58 | 21.33644 | -158.55599 | 18444 ft | 335 kts | 304° |
| 2026-04-26 01:58 | 21.34865 | -158.57691 | 18033 ft | 335 kts | 304° |
| 2026-04-26 01:58 | 21.36096 | -158.59800 | 17644 ft | 333 kts | 304° |
| 2026-04-26 01:58 | 21.37322 | -158.61902 | 17264 ft | 330 kts | 304° |
| 2026-04-26 01:59 | 21.38541 | -158.63989 | 16814 ft | 331 kts | 303° |
| 2026-04-26 01:59 | 21.39759 | -158.66079 | 16441 ft | 329 kts | 303° |
| 2026-04-26 01:59 | 21.40969 | -158.68155 | 16071 ft | 327 kts | 304° |
| 2026-04-26 01:59 | 21.42175 | -158.70223 | 15705 ft | 325 kts | 303° |
| 2026-04-26 02:00 | 21.43371 | -158.72276 | 15348 ft | 324 kts | 303° |
| 2026-04-26 02:00 | 21.44561 | -158.74320 | 14987 ft | 322 kts | 303° |
| 2026-04-26 02:00 | 21.45744 | -158.76353 | 14621 ft | 321 kts | 303° |
| 2026-04-26 02:00 | 21.46925 | -158.78384 | 14258 ft | 320 kts | 303° |
| 2026-04-26 02:01 | 21.48105 | -158.80411 | 13896 ft | 319 kts | 303° |
| 2026-04-26 02:01 | 21.49278 | -158.82428 | 13487 ft | 318 kts | 303° |
| 2026-04-26 02:01 | 21.50446 | -158.84438 | 13118 ft | 316 kts | 303° |
| 2026-04-26 02:01 | 21.51592 | -158.86409 | 12766 ft | 314 kts | 303° |
| 2026-04-26 02:02 | 21.52746 | -158.88390 | 12398 ft | 312 kts | 303° |
| 2026-04-26 02:02 | 21.53891 | -158.90357 | 12040 ft | 309 kts | 303° |
| 2026-04-26 02:02 | 21.55029 | -158.92313 | 11687 ft | 307 kts | 303° |
| 2026-04-26 02:02 | 21.55778 | -158.93599 | 11443 ft | 306 kts | 303° |
| 2026-04-26 02:03 | 21.56899 | -158.95526 | 11120 ft | 304 kts | 303° |
| 2026-04-26 02:03 | 21.58015 | -158.97446 | 10776 ft | 302 kts | 303° |
| 2026-04-26 02:03 | 21.59123 | -158.99353 | 10426 ft | 300 kts | 303° |
| 2026-04-26 02:03 | 21.60221 | -159.01243 | 10098 ft | 297 kts | 303° |
| 2026-04-26 02:04 | 21.61299 | -159.03100 | 9941 ft | 289 kts | 303° |
| 2026-04-26 02:04 | 21.62362 | -159.04929 | 9571 ft | 288 kts | 303° |
| 2026-04-26 02:04 | 21.63418 | -159.06750 | 9244 ft | 286 kts | 303° |
| 2026-04-26 02:04 | 21.64468 | -159.08560 | 8910 ft | 284 kts | 303° |
| 2026-04-26 02:05 | 21.65513 | -159.10363 | 8584 ft | 282 kts | 304° |
| 2026-04-26 02:05 | 21.66547 | -159.12146 | 8266 ft | 281 kts | 304° |
| 2026-04-26 02:05 | 21.67577 | -159.13922 | 7946 ft | 279 kts | 304° |
| 2026-04-26 02:05 | 21.68602 | -159.15693 | 7629 ft | 278 kts | 304° |
| 2026-04-26 02:06 | 21.69624 | -159.17458 | 7331 ft | 277 kts | 304° |
| 2026-04-26 02:06 | 21.70642 | -159.19221 | 7027 ft | 277 kts | 304° |
| 2026-04-26 02:06 | 21.71655 | -159.20971 | 6729 ft | 275 kts | 304° |
| 2026-04-26 02:06 | 21.72657 | -159.22702 | 6440 ft | 274 kts | 303° |
| 2026-04-26 02:07 | 21.73854 | -159.24276 | 6086 ft | 270 kts | 324° |
| 2026-04-26 02:07 | 21.75343 | -159.25528 | 5607 ft | 277 kts | 312° |
| 2026-04-26 02:07 | 21.76214 | -159.27359 | 5458 ft | 270 kts | 291° |
| 2026-04-26 02:07 | 21.76898 | -159.29169 | 5385 ft | 252 kts | 296° |
| 2026-04-26 02:08 | 21.77853 | -159.30618 | 5180 ft | 228 kts | 329° |
| 2026-04-26 02:08 | 21.79216 | -159.31238 | 5058 ft | 200 kts | 347° |
| 2026-04-26 02:08 | 21.80480 | -159.31620 | 4855 ft | 178 kts | 350° |
| 2026-04-26 02:08 | 21.81644 | -159.31963 | 4476 ft | 170 kts | 349° |
| 2026-04-26 02:09 | 21.82739 | -159.32288 | 4206 ft | 153 kts | 350° |
| 2026-04-26 02:09 | 21.83739 | -159.32585 | 3828 ft | 145 kts | 351° |
| 2026-04-26 02:09 | 21.84724 | -159.32873 | 3357 ft | 147 kts | 352° |
| 2026-04-26 02:09 | 21.85672 | -159.33154 | 3022 ft | 136 kts | 351° |
| 2026-04-26 02:10 | 21.86570 | -159.33419 | 2583 ft | 133 kts | 351° |
| 2026-04-26 02:10 | 21.87460 | -159.33604 | 2157 ft | 127 kts | 5° |
| 2026-04-26 02:10 | 21.88334 | -159.33581 | 1739 ft | 124 kts | 5° |
| 2026-04-26 02:10 | 21.89160 | -159.33586 | 1544 ft | 118 kts | 5° |
| 2026-04-26 02:11 | 21.89995 | -159.33587 | 1359 ft | 121 kts | 5° |
| 2026-04-26 02:11 | 21.90848 | -159.33590 | 1232 ft | 124 kts | 4° |
| 2026-04-26 02:11 | 21.91727 | -159.33599 | 1058 ft | 128 kts | 4° |
| 2026-04-26 02:11 | 21.92610 | -159.33606 | 881 ft | 123 kts | 4° |
| 2026-04-26 02:12 | 21.93475 | -159.33597 | 655 ft | 125 kts | 4° |
| 2026-04-26 02:12 | 21.94334 | -159.33590 | 532 ft | 123 kts | 4° |
| 2026-04-26 02:12 | 21.95190 | -159.33594 | 396 ft | 125 kts | 5° |
| 2026-04-26 02:12 | 21.96059 | -159.33593 | 206 ft | 123 kts | 4° |
| 2026-04-26 02:13 | 21.96880 | -159.33591 | 100 ft | 108 kts | 2° |
| 2026-04-26 02:13 | 21.97479 | -159.33591 | 99 ft | 64 kts | 0° |
| 2026-04-26 02:13 | 21.97775 | -159.33619 | 101 ft | 21 kts | 340° |
| 2026-04-26 02:13 | 21.97876 | -159.33669 | 100 ft | 15 kts | 330° |
| 2026-04-26 02:14 | 21.97910 | -159.33691 | 100 ft | 0 kts | 328° |
| 2026-04-26 02:15 | 21.97912 | -159.33692 | 100 ft | 1 kts | 327° |
| 2026-04-26 02:15 | 21.97926 | -159.33708 | 100 ft | 5 kts | 307° |
| 2026-04-26 02:16 | 21.97940 | -159.33756 | 102 ft | 9 kts | 271° |
| 2026-04-26 02:16 | 21.97939 | -159.33825 | 106 ft | 9 kts | 270° |
| 2026-04-26 02:16 | 21.97940 | -159.33893 | 110 ft | 9 kts | 270° |
| 2026-04-26 02:16 | 21.97940 | -159.33960 | 114 ft | 9 kts | 270° |
| 2026-04-26 02:17 | 21.97940 | -159.34024 | 117 ft | 9 kts | 270° |
| 2026-04-26 02:17 | 21.97940 | -159.34090 | 117 ft | 10 kts | 270° |
| 2026-04-26 02:17 | 21.97939 | -159.34171 | 121 ft | 12 kts | 269° |
| 2026-04-26 02:17 | 21.97938 | -159.34266 | 123 ft | 13 kts | 270° |
| 2026-04-26 02:18 | 21.97937 | -159.34342 | 126 ft | 8 kts | 264° |
| 2026-04-26 02:18 | 21.97909 | -159.34392 | 126 ft | 8 kts | 225° |
| 2026-04-26 02:18 | 21.97871 | -159.34433 | 130 ft | 8 kts | 225° |
| 2026-04-26 02:18 | 21.97832 | -159.34474 | 132 ft | 9 kts | 224° |
| 2026-04-26 02:19 | 21.97788 | -159.34520 | 135 ft | 9 kts | 224° |
| 2026-04-26 02:19 | 21.97744 | -159.34568 | 137 ft | 9 kts | 226° |
| 2026-04-26 02:19 | 21.97749 | -159.34633 | 138 ft | 11 kts | 311° |
| 2026-04-26 02:19 | 21.97798 | -159.34680 | 137 ft | 5 kts | 334° |
| 2026-04-26 02:20 | 21.97827 | -159.34682 | 136 ft | 3 kts | 1° |
| 2026-04-26 02:20 | 21.97843 | -159.34693 | 136 ft | 3 kts | 316° |
| 2026-04-26 02:20 | 21.97858 | -159.34709 | 135 ft | 3 kts | 315° |
| 2026-04-26 02:20 | 21.97875 | -159.34727 | 135 ft | 3 kts | 314° |
| 2026-04-26 02:21 | 21.97876 | -159.34728 | 135 ft | 0 kts | 314° |
| 2026-04-26 02:21 | 21.97877 | -159.34729 | 135 ft | 0 kts | 315° |